CYTZ/YTZ METAR and TAF weather

Enter ICAO airport designator
Station Type Date Time Source
CYTZ METAR 2019/07/20 20:00 UTC NOAA

CYTZ 202000Z AUTO 25007KT 9SM BKN060 BKN074 25/21 A2978 RMK SLP084 DENSITY ALT 1500FT


Station Type Date Time Source
CYTZ Decoded METAR 2019/07/20 20:00 UTC NOAA

Toronto Island Airport Automated Reporting Station, Canada (CYTZ) 43-38N 079-24W
Jul 20, 2019 - 04:00 PM EDT / 2019.07.20 2000 UTC
Wind: from the WSW (250 degrees) at 8 MPH (7 KT):0
Visibility: 9 mile(s):0
Sky conditions: mostly cloudy
Temperature: 77 F (25 C)
Dew Point: 69 F (21 C)
Relative Humidity: 78%
Pressure (altimeter): 29.78 in. Hg (1008 hPa)
ob: CYTZ 202000Z AUTO 25007KT 9SM BKN060 BKN074 25/21 A2978 RMK SLP084 DENSITY ALT 1500FT
cycle: 20

Station Type Date Time Source
CYTZ TAF 2019/07/20 20:44 UTC NOAA

TAF CYTZ 201939Z 2020/2120 24008KT P6SM BKN070 PROB30 2023/2103 VRB15G30KT 1SM +TSRA BR BKN015 OVC030CB
FM210300 29010KT P6SM FEW020 SCT050
FM210500 30010KT 6SM BR SCT020 BKN050
FM211200 29007KT P6SM SCT050
FM211500 29008KT P6SM SCT030 BKN060
RMK FCST BASED ON AUTO OBS. NXT FCST BY 210200Z

Example: see airport list